Flight Track Log - Related Links

Times and Time Zones

All times are in EDT time to prevent confusion due to time zone crossing. See the SWA706 flight status page for this flight to view local times or setup timezone preferences in your user account.

Time Position Orientation Groundspeed Altitude Reporting Facility
EDT Latitude Longitude Course Direction KTS MPH feet Rate Location/Type
Sat 08:44:27 PM 40.8128 -111.9711 338° Northwest 144 166 5,900  Level Salt Lake Center
Sat 08:44:54 PM 40.8150 -112.0106 274° West 194 223 6,700 2,400 Climbing Salt Lake Center
Sat 08:45:27 PM 40.8186 -112.0481 277° West 213 245 8,300 2,700 Climbing Salt Lake Center
Sat 08:45:54 PM 40.8264 -112.0917 283° West 240 276 9,400 2,164 Climbing Salt Lake Center
Sat 08:46:28 PM 40.8253 -112.1394 268° West 257 296 10,500 2,687 Climbing Salt Lake Center
Sat 08:47:01 PM 40.8153 -112.2003 258° West 273 314 12,400 3,049 Climbing Salt Lake Center
Sat 08:47:29 PM 40.7967 -112.2383 237° Southwest 300 345 13,600 3,438 Climbing Salt Lake Center
Sat 08:48:30 PM 40.7089 -112.2869 203° Southwest 346 398 17,500 3,570 Climbing Salt Lake Center
Sat 08:49:30 PM 40.6081 -112.3047 188° South 364 419 20,800 3,074 Climbing Salt Lake Center
Sat 08:50:31 PM 40.4992 -112.3247 188° South 395 455 23,700 2,803 Climbing Salt Lake Center
Sat 08:51:32 PM 40.3822 -112.3497 189° South 422 486 26,500 2,557 Climbing Salt Lake Center
Sat 08:52:33 PM 40.2667 -112.4083 201° Southwest 448 516 28,900 2,380 Climbing Salt Lake Center
Sat 08:53:33 PM 40.1531 -112.4886 208° Southwest 463 533 31,300 2,678 Climbing Salt Lake Center
Sat 08:54:34 PM 40.0400 -112.5625 207° Southwest 456 525 34,300 2,311 Climbing Salt Lake Center
Sat 08:55:35 PM 39.9131 -112.5511 176° South 456 525 36,000 836 Climbing Salt Lake Center
Sat 08:56:36 PM 39.7642 -112.5356 175° South 450 518 36,000  Level Salt Lake Center
Sat 08:57:36 PM 39.6389 -112.5231 176° South 451 519 36,000  Level Salt Lake Center
Sat 08:58:37 PM 39.5147 -112.5081 175° South 451 519 36,000  Level Salt Lake Center
Sat 08:59:38 PM 39.3886 -112.4950 175° South 454 522 36,000  Level Salt Lake Center
Sat 09:00:38 PM 39.2633 -112.4794 175° South 453 521 36,000  Level Salt Lake Center
Sat 09:01:39 PM 39.1353 -112.4656 175° South 455 524 36,000  Level Salt Lake Center
Sat 09:02:40 PM 39.0092 -112.4519 175° South 453 521 36,000  Level Salt Lake Center
Sat 09:03:41 PM 38.8817 -112.4369 175° South 456 525 36,000  Level Salt Lake Center
Sat 09:04:42 PM 38.7539 -112.4236 175° South 459 528 36,000  Level Salt Lake Center
Sat 09:05:42 PM 38.6267 -112.4086 175° South 459 528 36,000  Level Salt Lake Center
Sat 09:06:43 PM 38.4978 -112.3950 175° South 462 532 36,000  Level Salt Lake Center
Sat 09:07:44 PM 38.3697 -112.3808 175° South 462 532 36,000  Level Salt Lake Center
Sat 09:08:45 PM 38.2417 -112.3661 175° South 461 531 36,000  Level Salt Lake Center
Sat 09:09:46 PM 38.1128 -112.3519 175° South 463 533 36,000  Level Salt Lake Center
Sat 09:10:46 PM 37.9847 -112.3375 175° South 461 531 36,000  Level Salt Lake Center
Sat 09:11:47 PM 37.8550 -112.3228 175° South 463 533 36,000  Level Salt Lake Center
Sat 09:12:48 PM 37.7264 -112.3083 175° South 462 532 36,000  Level Salt Lake Center
Sat 09:13:49 PM 37.5978 -112.3078 180° South 459 528 36,000  Level Salt Lake Center
Sat 09:14:50 PM 37.4683 -112.3169 183° South 461 531 36,000  Level Salt Lake Center
Sat 09:15:50 PM 37.3397 -112.3250 183° South 460 529 36,000  Level Salt Lake Center
Sat 09:16:51 PM 37.2111 -112.3311 182° South 459 528 36,000  Level Salt Lake Center
Sat 09:18:02 PM 37.0800 -112.3406 183° South 461 531 36,000  Level Los Angeles Center
Sat 09:19:04 PM 36.9283 -112.3508 183° South 455 524 36,000 -49 Level Los Angeles Center
Sat 09:20:05 PM 36.7753 -112.3606 183° South 456 525 35,900 -443 Descending Los Angeles Center
Sat 09:21:06 PM 36.6747 -112.3667 183° South 453 521 35,100 -1,220 Descending Los Angeles Center
Sat 09:22:08 PM 36.5208 -112.3758 183° South 458 527 33,400 -1,024 Descending Los Angeles Center
Sat 09:23:09 PM 36.3911 -112.3828 182° South 462 532 33,000 -197 Descending Los Angeles Center
Sat 09:24:10 PM 36.2617 -112.3906 183° South 464 534 33,000 -488 Level Los Angeles Center
Sat 09:25:12 PM 36.1322 -112.3983 183° South 464 534 32,000 -927 Descending Los Angeles Center
Sat 09:26:13 PM 36.0033 -112.4067 183° South 463 533 31,100 -934 Descending Los Angeles Center
Sat 09:27:14 PM 35.8706 -112.4108 181° South 461 531 30,100 -984 Descending Los Angeles Center
Sat 09:28:15 PM 35.7422 -112.4164 182° South 461 531 29,100 -489 Descending Los Angeles Center
Sat 09:29:29 PM 35.6142 -112.4214 182° South 459 528 29,000 -44 Descending Los Angeles Center
Sat 09:30:30 PM 35.4606 -112.4344 184° South 455 524 29,000  Level Los Angeles Center
Sat 09:31:31 PM 35.3331 -112.4242 176° South 452 520 29,000  Level Los Angeles Center
Sat 09:32:00 PM 35.2578 -112.4075 170° South 450 518 29,000  Level Albuquerque Center
Sat 09:33:01 PM 35.1336 -112.3781 169° South 451 519 29,000  Level Albuquerque Center
Sat 09:34:02 PM 35.0094 -112.3489 169° South 452 520 29,000  Level Albuquerque Center
Sat 09:35:03 PM 34.8858 -112.3203 169° South 453 521 29,000 -197 Level Albuquerque Center
Sat 09:36:04 PM 34.7647 -112.2919 169° South 449 517 28,600 -1,525 Descending Albuquerque Center
Sat 09:37:05 PM 34.6378 -112.2631 169° South 454 522 25,900 -2,607 Descending Albuquerque Center
Sat 09:38:06 PM 34.5192 -112.2367 170° South 447 514 23,300 -2,508 Descending Albuquerque Center
Sat 09:39:07 PM 34.4078 -112.2111 169° South 429 494 20,800 -2,361 Descending Albuquerque Center
Sat 09:40:08 PM 34.3019 -112.1858 169° South 407 468 18,500 -2,311 Descending Albuquerque Center
Sat 09:41:09 PM 34.2003 -112.1625 169° South 387 445 16,100 -2,016 Descending Albuquerque Center
Sat 09:42:10 PM 34.0842 -112.1364 169° South 364 419 14,400 -1,672 Descending Albuquerque Center
Sat 09:43:11 PM 33.9975 -112.1450 185° South 325 374 12,700 -1,438 Descending Albuquerque Center
Sat 09:44:11 PM 33.9119 -112.1542 185° South 315 362 11,500 -893 Descending Albuquerque Center
Sat 09:45:12 PM 33.8389 -112.1706 191° South 278 320 10,900 -836 Descending Albuquerque Center
Sat 09:46:13 PM 33.7703 -112.1853 190° South 258 297 9,800 -1,082 Descending Albuquerque Center
Sat 09:47:14 PM 33.7019 -112.1994 190° South 252 290 8,700 -1,131 Descending Albuquerque Center
Sat 09:48:15 PM 33.6336 -112.2136 190° South 250 288 7,500 -1,180 Descending Albuquerque Center
Sat 09:49:16 PM 33.5658 -112.2253 188° South 247 284 6,300 -1,140 Descending Albuquerque Center
Sat 09:50:16 PM 33.4989 -112.2300 183° South 243 280 5,200 -1,438 Descending Albuquerque Center
Sat 09:51:17 PM 33.4556 -112.1869 140° Southeast 228 262 3,400 -1,328 Descending Albuquerque Center
Sat 09:52:18 PM 33.4419 -112.1211 104° East 188 216 2,500 -738 Descending Albuquerque Center
Sat 09:53:19 PM 33.4414 -112.0756 91° East 158 182 1,900 -639 Descending Albuquerque Center
Sat 09:54:20 PM 33.4414 -112.0322 90° East 144 166 1,200 -393 Descending Albuquerque Center
Sat 09:55:21 PM 33.4414 -111.9886 90° East 142 163 1,100 -98 Descending Albuquerque Center

Login

Don't have an account? Register now (free) for customized features, flight alerts, and more!